Aviation Digital Data Service (ADDS)

Output produced by METARs form (1819 UTC 26 September 2021)
found at http://www.aviationweather.gov/metar/data/
 
METAR text: RJBE 261300Z 05015KT 9999 FEW015 BKN060 21/17 Q1017
Conditions at: RJBE (KOBE , JP) observed 1300 UTC 26 September 2021
Temperature: 21.0°C (70°F)
Dewpoint: 17.0°C (63°F) [RH = 78%]
Pressure (altimeter): 30.03 inches Hg (1017.0 mb)
Winds: from the NE (50 degrees) at 17 MPH (15 knots; 7.7 m/s)
Visibility: 6 or more miles (10+ km)
Ceiling: 6000 feet AGL
Clouds: few clouds at 1500 feet AGL
broken clouds at 6000 feet AGL
Weather: no significant weather observed at this time

METAR text: RJBE 261200Z 05015KT 9999 VCSH FEW015 SCT045 BKN060 21/17 Q1017
Conditions at: RJBE (KOBE , JP) observed 1200 UTC 26 September 2021
Temperature: 21.0°C (70°F)
Dewpoint: 17.0°C (63°F) [RH = 78%]
Pressure (altimeter): 30.03 inches Hg (1017.0 mb)
Winds: from the NE (50 degrees) at 17 MPH (15 knots; 7.7 m/s)
Visibility: 6 or more miles (10+ km)
Ceiling: 6000 feet AGL
Clouds: few clouds at 1500 feet AGL
scattered clouds at 4500 feet AGL
broken clouds at 6000 feet AGL
Weather: VCSH  (showers in vicinity)

METAR text: RJBE 261100Z 05015KT 9999 -SHRA FEW015 SCT040 BKN060 21/17 Q1018
Conditions at: RJBE (KOBE , JP) observed 1100 UTC 26 September 2021
Temperature: 21.0°C (70°F)
Dewpoint: 17.0°C (63°F) [RH = 78%]
Pressure (altimeter): 30.06 inches Hg (1018.0 mb)
Winds: from the NE (50 degrees) at 17 MPH (15 knots; 7.7 m/s)
Visibility: 6 or more miles (10+ km)
Ceiling: 6000 feet AGL
Clouds: few clouds at 1500 feet AGL
scattered clouds at 4000 feet AGL
broken clouds at 6000 feet AGL
Weather: -SHRA  (light rain showers)

METAR text: RJBE 261000Z 05017KT 9999 -SHRA FEW015 SCT040 BKN070 21/17 Q1017
Conditions at: RJBE (KOBE , JP) observed 1000 UTC 26 September 2021
Temperature: 21.0°C (70°F)
Dewpoint: 17.0°C (63°F) [RH = 78%]
Pressure (altimeter): 30.03 inches Hg (1017.0 mb)
Winds: from the NE (50 degrees) at 20 MPH (17 knots; 8.7 m/s)
Visibility: 6 or more miles (10+ km)
Ceiling: 7000 feet AGL
Clouds: few clouds at 1500 feet AGL
scattered clouds at 4000 feet AGL
broken clouds at 7000 feet AGL
Weather: -SHRA  (light rain showers)

METAR text: RJBE 260900Z 06016KT 9999 -SHRA FEW012 SCT040 BKN070 21/17 Q1017
Conditions at: RJBE (KOBE , JP) observed 0900 UTC 26 September 2021
Temperature: 21.0°C (70°F)
Dewpoint: 17.0°C (63°F) [RH = 78%]
Pressure (altimeter): 30.03 inches Hg (1017.0 mb)
Winds: from the ENE (60 degrees) at 18 MPH (16 knots; 8.2 m/s)
Visibility: 6 or more miles (10+ km)
Ceiling: 7000 feet AGL
Clouds: few clouds at 1200 feet AGL
scattered clouds at 4000 feet AGL
broken clouds at 7000 feet AGL
Weather: -SHRA  (light rain showers)

METAR text: RJBE 260800Z 06018KT 9999 VCSH FEW008 SCT030 BKN045 22/18 Q1017
Conditions at: RJBE (KOBE , JP) observed 0800 UTC 26 September 2021
Temperature: 22.0°C (72°F)
Dewpoint: 18.0°C (64°F) [RH = 78%]
Pressure (altimeter): 30.03 inches Hg (1017.0 mb)
Winds: from the ENE (60 degrees) at 21 MPH (18 knots; 9.3 m/s)
Visibility: 6 or more miles (10+ km)
Ceiling: 4500 feet AGL
Clouds: few clouds at 800 feet AGL
scattered clouds at 3000 feet AGL
broken clouds at 4500 feet AGL
Weather: VCSH  (showers in vicinity)

METAR text: RJBE 260700Z 05018KT 9999 -SHRA FEW006 SCT012 BKN040 21/18 Q1018
Conditions at: RJBE (KOBE , JP) observed 0700 UTC 26 September 2021
Temperature: 21.0°C (70°F)
Dewpoint: 18.0°C (64°F) [RH = 83%]
Pressure (altimeter): 30.06 inches Hg (1018.0 mb)
Winds: from the NE (50 degrees) at 21 MPH (18 knots; 9.3 m/s)
Visibility: 6 or more miles (10+ km)
Ceiling: 4000 feet AGL
Clouds: few clouds at 600 feet AGL
scattered clouds at 1200 feet AGL
broken clouds at 4000 feet AGL
Weather: -SHRA  (light rain showers)

METAR text: RJBE 260600Z 07016KT 9999 -SHRA FEW008 SCT012 BKN045 21/19 Q1017
Conditions at: RJBE (KOBE , JP) observed 0600 UTC 26 September 2021
Temperature: 21.0°C (70°F)
Dewpoint: 19.0°C (66°F) [RH = 88%]
Pressure (altimeter): 30.03 inches Hg (1017.0 mb)
Winds: from the ENE (70 degrees) at 18 MPH (16 knots; 8.2 m/s)
Visibility: 6 or more miles (10+ km)
Ceiling: 4500 feet AGL
Clouds: few clouds at 800 feet AGL
scattered clouds at 1200 feet AGL
broken clouds at 4500 feet AGL
Weather: -SHRA  (light rain showers)

METAR text: RJBE 260500Z 05016KT 9999 VCSH FEW015 SCT040 BKN070 22/18 Q1017
Conditions at: RJBE (KOBE , JP) observed 0500 UTC 26 September 2021
Temperature: 22.0°C (72°F)
Dewpoint: 18.0°C (64°F) [RH = 78%]
Pressure (altimeter): 30.03 inches Hg (1017.0 mb)
Winds: from the NE (50 degrees) at 18 MPH (16 knots; 8.2 m/s)
Visibility: 6 or more miles (10+ km)
Ceiling: 7000 feet AGL
Clouds: few clouds at 1500 feet AGL
scattered clouds at 4000 feet AGL
broken clouds at 7000 feet AGL
Weather: VCSH  (showers in vicinity)

METAR text: RJBE 260400Z 05015KT 9999 VCSH FEW015 BKN070 23/18 Q1018
Conditions at: RJBE (KOBE , JP) observed 0400 UTC 26 September 2021
Temperature: 23.0°C (73°F)
Dewpoint: 18.0°C (64°F) [RH = 73%]
Pressure (altimeter): 30.06 inches Hg (1018.0 mb)
Winds: from the NE (50 degrees) at 17 MPH (15 knots; 7.7 m/s)
Visibility: 6 or more miles (10+ km)
Ceiling: 7000 feet AGL
Clouds: few clouds at 1500 feet AGL
broken clouds at 7000 feet AGL
Weather: VCSH  (showers in vicinity)

METAR text: RJBE 260300Z 05014KT 9999 VCSH FEW015 BKN070 23/18 Q1018
Conditions at: RJBE (KOBE , JP) observed 0300 UTC 26 September 2021
Temperature: 23.0°C (73°F)
Dewpoint: 18.0°C (64°F) [RH = 73%]
Pressure (altimeter): 30.06 inches Hg (1018.0 mb)
Winds: from the NE (50 degrees) at 16 MPH (14 knots; 7.2 m/s)
Visibility: 6 or more miles (10+ km)
Ceiling: 7000 feet AGL
Clouds: few clouds at 1500 feet AGL
broken clouds at 7000 feet AGL
Weather: VCSH  (showers in vicinity)

METAR text: RJBE 260200Z 05014KT 9999 VCSH FEW015 SCT070 BKN180 23/18 Q1019
Conditions at: RJBE (KOBE , JP) observed 0200 UTC 26 September 2021
Temperature: 23.0°C (73°F)
Dewpoint: 18.0°C (64°F) [RH = 73%]
Pressure (altimeter): 30.09 inches Hg (1019.0 mb)
Winds: from the NE (50 degrees) at 16 MPH (14 knots; 7.2 m/s)
Visibility: 6 or more miles (10+ km)
Ceiling: 18000 feet AGL
Clouds: few clouds at 1500 feet AGL
scattered clouds at 7000 feet AGL
broken clouds at 18000 feet AGL
Weather: VCSH  (showers in vicinity)

METAR text: RJBE 260100Z 05015KT 9999 FEW020 SCT070 BKN180 24/19 Q1019
Conditions at: RJBE (KOBE , JP) observed 0100 UTC 26 September 2021
Temperature: 24.0°C (75°F)
Dewpoint: 19.0°C (66°F) [RH = 74%]
Pressure (altimeter): 30.09 inches Hg (1019.0 mb)
Winds: from the NE (50 degrees) at 17 MPH (15 knots; 7.7 m/s)
Visibility: 6 or more miles (10+ km)
Ceiling: 18000 feet AGL
Clouds: few clouds at 2000 feet AGL
scattered clouds at 7000 feet AGL
broken clouds at 18000 feet AGL
Weather: no significant weather observed at this time

METAR text: RJBE 260000Z 05015KT 9999 FEW020 BKN070 BKN/// 24/19 Q1019
Conditions at: RJBE (KOBE , JP) observed 0000 UTC 26 September 2021
Temperature: 24.0°C (75°F)
Dewpoint: 19.0°C (66°F) [RH = 74%]
Pressure (altimeter): 30.09 inches Hg (1019.0 mb)
Winds: from the NE (50 degrees) at 17 MPH (15 knots; 7.7 m/s)
Visibility: 6 or more miles (10+ km)
Ceiling: 7000 feet AGL
Clouds: few clouds at 2000 feet AGL
broken clouds at 7000 feet AGL
Weather: no significant weather observed at this time

METAR text: RJBE 252300Z 05011KT 9999 FEW020 SCT070 BKN/// 23/19 Q1019
Conditions at: RJBE (KOBE , JP) observed 2300 UTC 25 September 2021
Temperature: 23.0°C (73°F)
Dewpoint: 19.0°C (66°F) [RH = 78%]
Pressure (altimeter): 30.09 inches Hg (1019.0 mb)
Winds: from the NE (50 degrees) at 13 MPH (11 knots; 5.7 m/s)
Visibility: 6 or more miles (10+ km)
Ceiling: at least 12,000 feet AGL
Clouds: few clouds at 2000 feet AGL
scattered clouds at 7000 feet AGL
Weather: no significant weather observed at this time

METAR text: RJBE 252200Z 06013KT 9999 FEW015 SCT060 BKN090 23/20 Q1019
Conditions at: RJBE (KOBE , JP) observed 2200 UTC 25 September 2021
Temperature: 23.0°C (73°F)
Dewpoint: 20.0°C (68°F) [RH = 83%]
Pressure (altimeter): 30.09 inches Hg (1019.0 mb)
Winds: from the ENE (60 degrees) at 15 MPH (13 knots; 6.7 m/s)
Visibility: 6 or more miles (10+ km)
Ceiling: 9000 feet AGL
Clouds: few clouds at 1500 feet AGL
scattered clouds at 6000 feet AGL
broken clouds at 9000 feet AGL
Weather: no significant weather observed at this time

METAR text: RJBE 251300Z 09013KT 9999 FEW030 SCT070 BKN/// 23/20 Q1020
Conditions at: RJBE (KOBE , JP) observed 1300 UTC 25 September 2021
Temperature: 23.0°C (73°F)
Dewpoint: 20.0°C (68°F) [RH = 83%]
Pressure (altimeter): 30.12 inches Hg (1020.0 mb)
Winds: from the E (90 degrees) at 15 MPH (13 knots; 6.7 m/s)
Visibility: 6 or more miles (10+ km)
Ceiling: at least 12,000 feet AGL
Clouds: few clouds at 3000 feet AGL
scattered clouds at 7000 feet AGL
Weather: no significant weather observed at this time

METAR text: RJBE 251200Z 06013KT 9999 FEW030 SCT080 BKN/// 26/18 Q1020
Conditions at: RJBE (KOBE , JP) observed 1200 UTC 25 September 2021
Temperature: 26.0°C (79°F)
Dewpoint: 18.0°C (64°F) [RH = 61%]
Pressure (altimeter): 30.12 inches Hg (1020.0 mb)
Winds: from the ENE (60 degrees) at 15 MPH (13 knots; 6.7 m/s)
Visibility: 6 or more miles (10+ km)
Ceiling: at least 12,000 feet AGL
Clouds: few clouds at 3000 feet AGL
scattered clouds at 8000 feet AGL
Weather: no significant weather observed at this time

METAR text: RJBE 251100Z 05011KT 9999 FEW030 BKN/// 26/18 Q1020
Conditions at: RJBE (KOBE , JP) observed 1100 UTC 25 September 2021
Temperature: 26.0°C (79°F)
Dewpoint: 18.0°C (64°F) [RH = 61%]
Pressure (altimeter): 30.12 inches Hg (1020.0 mb)
Winds: from the NE (50 degrees) at 13 MPH (11 knots; 5.7 m/s)
Visibility: 6 or more miles (10+ km)
Ceiling: at least 12,000 feet AGL
Clouds: few clouds at 3000 feet AGL
Weather: no significant weather observed at this time

METAR text: RJBE 251000Z 05010KT 9999 FEW030 SCT070 BKN/// 27/18 Q1020
Conditions at: RJBE (KOBE , JP) observed 1000 UTC 25 September 2021
Temperature: 27.0°C (81°F)
Dewpoint: 18.0°C (64°F) [RH = 58%]
Pressure (altimeter): 30.12 inches Hg (1020.0 mb)
Winds: from the NE (50 degrees) at 12 MPH (10 knots; 5.1 m/s)
Visibility: 6 or more miles (10+ km)
Ceiling: at least 12,000 feet AGL
Clouds: few clouds at 3000 feet AGL
scattered clouds at 7000 feet AGL
Weather: no significant weather observed at this time

METAR text: RJBE 250900Z 27007KT 9999 FEW030 BKN/// 25/20 Q1019
Conditions at: RJBE (KOBE , JP) observed 0900 UTC 25 September 2021
Temperature: 25.0°C (77°F)
Dewpoint: 20.0°C (68°F) [RH = 74%]
Pressure (altimeter): 30.09 inches Hg (1019.0 mb)
Winds: from the W (270 degrees) at 8 MPH (7 knots; 3.6 m/s)
Visibility: 6 or more miles (10+ km)
Ceiling: at least 12,000 feet AGL
Clouds: few clouds at 3000 feet AGL
Weather: no significant weather observed at this time

METAR text: RJBE 250800Z 26008KT 9999 FEW030 BKN/// 26/19 Q1018
Conditions at: RJBE (KOBE , JP) observed 0800 UTC 25 September 2021
Temperature: 26.0°C (79°F)
Dewpoint: 19.0°C (66°F) [RH = 65%]
Pressure (altimeter): 30.06 inches Hg (1018.0 mb)
Winds: from the W (260 degrees) at 9 MPH (8 knots; 4.1 m/s)
Visibility: 6 or more miles (10+ km)
Ceiling: at least 12,000 feet AGL
Clouds: few clouds at 3000 feet AGL
Weather: no significant weather observed at this time

METAR text: RJBE 250700Z 25010KT 9999 FEW030 BKN/// 27/20 Q1018
Conditions at: RJBE (KOBE , JP) observed 0700 UTC 25 September 2021
Temperature: 27.0°C (81°F)
Dewpoint: 20.0°C (68°F) [RH = 66%]
Pressure (altimeter): 30.06 inches Hg (1018.0 mb)
Winds: from the WSW (250 degrees) at 12 MPH (10 knots; 5.1 m/s)
Visibility: 6 or more miles (10+ km)
Ceiling: at least 12,000 feet AGL
Clouds: few clouds at 3000 feet AGL
Weather: no significant weather observed at this time